Vue régionale

METAR et TAF

Samedi 28 novembre 2020 à 23h55

Visibilités horizontales observées à différents aéroports. Les observations (METAR) et prévisions aéronautiques (TAF) complètes sont disponibles en cliquant sur l’icône correspondante.

  • Luxemburg (ELLX)

    Taf: TAF ELLX 281700Z 2818/2924 05007KT CAVOK BECMG 2822/2901 3000 BR PROB40 TEMPO 2901/2906 0500 FZFG BECMG 2906/2909 CAVOK=

    Metar: METAR ELLX 282220Z 04010KT CAVOK 01/M00 Q1020 NOSIG=

  • Spangdahlem (ETAD)

    Taf: TAF ETAD 281100Z 2811/2917 08009KT 9999 SKC QNH3007INS BECMG 2818/2819 VRB03KT 5000 BR SKC QNH3010INS BECMG 2902/2903 VRB04KT 3200 BR SCT005 BKN008 QNH3014INS TEMPO 2903/2906 0800 FG BKN003 BECMG 2906/2907 08009KT 8000 BR FEW050 QNH3021INS BECMG 2909/2910 09012KT 9999 NSW SKC QNH3022INS TX06/2814Z TNM01/2903Z LAST NO AMDS AFT 2811 NEXT 3005=

    Metar: METAR ETAD 282156Z AUTO 06008KT 2200 BR OVC002 00/00 A3015 RMK AO2 FZDZB22E34 CIG 001 RWY05 SLP219 P0000 T00020002 $=

  • Metz/Nancy (LFJL)

    Taf: TAF LFJL 281700Z 2818/2918 05006KT CAVOK PROB40 2903/2908 BKN008 PROB30 TEMPO 2903/2906 4000 BR BKN003=

    Metar: METAR LFJL 282230Z AUTO VRB01KT 7000 NSC 00/M01 Q1019 NOSIG=

  • Saarbrücken/Intl (EDDR)

    Taf: TAF AMD EDDR 281901Z 2819/2919 06010KT 9999 BKN005 TEMPO 2819/2823 3000 BR BKN003 PROB30 TEMPO 2905/2908 3000 BR BECMG 2908/2910 SCT008=

    Metar: METAR EDDR 282220Z 05011KT 020V080 4000 BR BKN003 01/00 Q1020=

  • Hahn (EDFH)

    Taf: TAF AMD EDFH 281839Z 2818/2918 11010KT 0100 FG BKN001 TEMPO 2818/2906 0300 FZFG BECMG 2910/2912 1500 BR BKN004 TEMPO 2912/2917 6000 SCT004=

    Metar: METAR EDFH 282220Z 10009KT 0200 R21/0600N FZFG VV/// 00/00 Q1020 WS ATIS O=

  • Ramstein (ETAR)

    Taf: TAF ETAR 281800Z 2818/2924 06009KT 8000 BR BKN003 QNH3009INS BECMG 2901/2902 06010G20KT 5000 BR BKN007 QNH3016INS BECMG 2904/2905 06010G20KT 6000 BR BKN010 QNH3017INS BECMG 2909/2910 07009KT 9999 NSW BKN020 QNH3023INS TX01/2818Z TNM02/2923Z=

    Metar: METAR ETAR 282156Z 06010KT 9999 OVC003 01/01 A3015 RMK AO2A SLP226 T00140014 FZRANO $=

  • Nancy/Ochey (LFSO)

    Taf: TAF LFSO 282000Z NIL=

    Metar: METAR LFSO 282230Z AUTO 06009KT 9000 NSC 02/00 Q1018=

  • Liège Bierset (EBLG)

    Taf: TAF COR EBLG 281741Z 2818/2924 06006KT CAVOK BECMG 2818/2820 4000 BR BECMG 2822/2824 2000 BKN004 PROB40 TEMPO 2900/2908 0800 FG BKN001 BECMG 2910/2912 6000 NSW=

    Metar: METAR EBLG 282220Z 05009KT 0900 R22L/1900U R22R/1900N R04R/1600N FG SCT001 BKN002 02/01 Q1022 TEMPO 0600 FG BKN001=

  • Saint-Dizier (LFSI)

    Taf: TAF LFSI 282000Z NIL=

    Metar: METAR LFSI 282230Z AUTO 06006KT CAVOK 04/01 Q1018=

  • Maastricht/Zuid Limburg (EHBK)

    Taf: TAF AMD EHBK 282046Z 2820/2924 06008KT 2000 BR BKN004 TEMPO 2820/2904 0700 FG OVC001 PROB30 2904/2909 4000 BECMG 2909/2912 CAVOK=

    Metar: METAR EHBK 282225Z AUTO 06009KT 1100 R03/1800N BR OVC001 03/02 Q1022=

  • Köln/Köln-Bonn (EDDK)

    Taf: TAF EDDK 281700Z 2818/2924 12005KT CAVOK TEMPO 2820/2909 BKN007=

    Metar: METAR EDDK 282220Z 13003KT 100V160 9999 BKN009 01/00 Q1023 NOSIG=

  • Charleroi (EBCI)

    Taf: TAF COR EBCI 281741Z 2818/2924 06006KT CAVOK BECMG 2818/2820 4000 BR BECMG 2822/2824 2000 BKN004 PROB40 TEMPO 2900/2908 0800 FG BKN001 BECMG 2910/2912 6000 NSW=

    Metar: METAR COR EBCI 282220Z 05008KT 3000 BR SCT003 02/02 Q1021 TEMPO 2500 BR BKN003=

  • Wiesbaden (ETOU)

    Taf: TAF AMD ETOU 281749Z 2817/2920 08006KT 9999 SCT007 QNH3014INS BECMG 2902/2903 08008KT 9999 SCT005 OVC010 QNH3021INS BECMG 2909/2910 07009KT 3200 BR FEW007 BKN012 QNH3025INS BECMG 2912/2913 09011KT 9999 NSW SCT015 QNH3026INS TX03/2823Z TN00/2906Z LAST NO AMDS AFT 2817 NEXT 2905=

    Metar: METAR ETOU 282156Z AUTO 07008KT 9999 OVC010 03/01 A3021 RMK AO2 SLP240 T00290011 $=

  • Karlsruhe/Baden-Baden (EDSB)

    Taf: TAF AMD EDSB 281903Z 2819/2918 03010KT 6000 BKN005 TEMPO 2819/2824 1500 BCFG BKN003 PROB30 TEMPO 2905/2908 1500 BCFG BECMG 2908/2911 SCT005=

    Metar: METAR EDSB 282220Z 03013KT 8000 BKN008 02/00 Q1020=

  • Chalons/Vatry (LFOK)

    Taf: TAF LFOK 281700Z 2818/2918 04010KT CAVOK PROB40 2906/2911 1500 BR OVC003=

    Metar: METAR LFOK 282230Z AUTO 03008KT CAVOK 01/M00 Q1018 NOSIG=

  • Frankfurt/Main (EDDF)

    Taf: TAF AMD EDDF 282039Z 2820/2924 05008KT 9999 BKN012 PROB30 TEMPO 2904/2908 3000 BR BKN008 BECMG 2908/2910 SCT008=

    Metar: METAR EDDF 282220Z 04009KT 010V070 9999 BKN013 03/01 Q1023 NOSIG=

  • Brüssel (EBBR)

    Taf: TAF COR EBBR 281741Z 2818/2924 06006KT CAVOK BECMG 2818/2820 4000 BR BECMG 2820/2822 2000 BKN003 PROB40 TEMPO 2900/2908 0800 FG BKN001 BECMG 2910/2912 6000 NSW TEMPO 2922/2924 4000 BR=

    Metar: METAR EBBR 282220Z 07007KT 0800 R25L/P2000N R25R/P2000N R01/1900U FG BKN001 03/02 Q1022 TEMPO 1500 BR BKN002=

  • Düsseldorf (EDDL)

    Taf: TAF EDDL 281700Z 2818/2924 06005KT CAVOK BECMG 2818/2820 BKN006 TEMPO 2819/2908 4000 BR BKN004 BECMG 2900/2903 BKN012 BECMG 2907/2910 SCT012=

    Metar: METAR EDDL 282220Z 06007KT 8000 OVC007 03/02 Q1024 NOSIG=

  • Luxeuil (LFSX)

    Taf: TAF LFSX 282000Z 2821/2921 12004KT 6000 OVC005 TEMPO 2821/2910 3000 BR OVC003 PROB30 TEMPO 2903/2908 0600 FZFG VV/// BECMG 2910/2911 SCT010=

    Metar: METAR LFSX 282230Z AUTO 08004KT 7000 OVC006 01/M00 Q1017=

  • Eindhoven (EHEH)

    Taf: TAF EHEH 281713Z 2818/2924 06008KT 0600 FG OVC001 BECMG 2820/2823 2500 BR OVC003 PROB40 2900/2907 5000 NSW SCT006 BKN010 BECMG 2907/2909 9999 NSC BECMG 2919/2921 1200 BR=

    Metar: METAR EHEH 282225Z AUTO 07008KT 030V100 2400 BR OVC002 04/04 Q1024 AMB=

  • Niederrhein (EDLV)

    Taf: TAF AMD EDLV 281943Z 2819/2918 06005KT 6000 BKN005 TEMPO 2819/2906 1200 BR BKN002 BECMG 2906/2909 CAVOK=

    Metar: METAR EDLV 282220Z 07004KT 020V140 6000 OVC004 04/03 Q1024=

  • Dortmund/Wickede (EDLW)

    Taf: TAF AMD EDLW 282220Z 2822/2918 CNL=

    Metar: METAR EDLW 282220Z AUTO 06008KT 8000 // OVC008/// 03/01 Q1024=

  • Stuttgart/Echterdingen (EDDS)

    Taf: TAF EDDS 281700Z 2818/2918 05007KT 9999 SCT004 BECMG 2820/2824 BKN004 PROB30 TEMPO 2905/2908 3000 BR BECMG 2908/2910 SCT004=

    Metar: METAR EDDS 282220Z 07010KT 9000 BKN008 01/M00 Q1020=

  • Basel-Mühlhausen (LFSB)

    Taf: TAF AMD LFSB 282158Z 2821/2918 36005KT 8000 FEW008 BKN016 TEMPO 2821/2908 2000 BR OVC003 TEMPO 2912/2918 SCT010=

    Metar: METAR LFSB 282230Z AUTO 36008KT 8000 SCT008 OVC015 01/00 Q1018 TEMPO 2000 BR OVC003=

  • Lille (LFQQ)

    Taf: TAF LFQQ 281700Z 2818/2924 03006KT 8000 NSC BECMG 2822/2824 0200 FG VV/// TEMPO 2900/2911 0800 OVC003 BECMG 2911/2913 3000 BR OVC004=

    Metar: METAR LFQQ 282230Z AUTO 05006KT 7000 NSC 05/03 Q1021 TEMPO 0800 BECMG VV///=

  • Paris/Charles de Gaulle (LFPG)

    Taf: TAF LFPG 281700Z 2818/2924 06008KT CAVOK TX06/2912Z TNM00/2924Z BECMG 2822/2824 3000 BR NSC PROB40 TEMPO 2903/2910 0300 BCFG BKN002 BECMG 2910/2912 CAVOK BECMG 2916/2918 BKN007 BECMG 2919/2921 3000 BR BKN003 PROB40 TEMPO 2923/2924 0300 FG VV///=

    Metar: METAR LFPG 282230Z 02006KT CAVOK 06/02 Q1019 NOSIG=

  • Paderborn/Lippstadt (EDLP)

    Taf: TAF AMD EDLP 282050Z 2820/2918 CNL=

    Metar: METAR EDLP NIL=

  • Paris/Le Bourget (LFPB)

    Taf: TAF LFPB 281800Z NIL=

    Metar: METAR LFPB 282230Z AUTO 35004KT CAVOK 04/02 Q1019 BECMG 3000 BR=

  • Rotterdam (EHRD)

    Taf: TAF EHRD 281710Z 2818/2924 06007KT 0800 FG OVC000 PROB30 2818/2821 0400 BECMG 2821/2824 4000 OVC004 BECMG 2908/2911 09005KT 6000 NSW SCT010 BECMG 2911/2913 CAVOK BECMG 2918/2921 VRB03KT 7000 PROB30 2921/2924 4000 BR=

    Metar: METAR EHRD 282225Z AUTO 08009KT 040V110 2300 BR OVC001 04/04 Q1024 NOSIG=

  • Zürich/Kloten (LSZH)

    Taf: TAF LSZH 282025Z 2821/3003 05006KT 9999 OVC009 TX02/2914Z TN00/2906Z TEMPO 2821/2824 OVC012 BECMG 2908/2911 BKN011 BECMG 2919/2922 BKN008 BECMG 3000/3003 VRB03KT PROB40 3000/3003 4500 BR BKN004=

    Metar: METAR LSZH 282220Z 01004KT 9000 FEW008 OVC010 02/00 Q1018 NOSIG=

  • Oostende/Intl (EBOS)

    Taf: TAF COR EBOS 281741Z 2818/2924 09006KT 8000 NSC BECMG 2818/2820 4000 BR BECMG 2820/2822 2000 BKN004 TEMPO 2900/2910 0500 FG BKN002 BECMG 2811/2813 6000 NSW=

    Metar: METAR COR EBOS 282220Z 06007KT 4000 BR NSC 04/03 Q1022 BECMG 2000 BR BKN004=

  • Paris/Orly (LFPO)

    Taf: TAF LFPO 281800Z NIL=

    Metar: METAR LFPO 282230Z 03006KT CAVOK 06/02 Q1019 NOSIG=

  • Beauvais (LFOB)

    Taf: TAF AMD LFOB 282226Z 2822/2918 VRB03KT 6000 NSC BECMG 2823/2902 0200 FG VV/// PROB40 2903/2910 FZFG BECMG 2911/2913 2000 BR OVC003=

    Metar: METAR LFOB 282230Z AUTO VRB03KT 6000 NSC 03/02 Q1020 BECMG 0200 FG VV///=

  • Münster/Intl (EDDG)

    Taf: TAF AMD EDDG 282117Z 2821/2918 08006KT 9999 OVC008 BECMG 2821/2822 BKN012 TEMPO 2822/2902 SCT012 BECMG 2902/2904 SCT030=

    Metar: METAR EDDG 282220Z VRB05KT 9999 BKN015 03/00 Q1025 TEMPO BKN010=

  • Illesheim (ETIK)

    Taf: nil

    Metar: METAR ETIK 282156Z AUTO 08005KT 9999 OVC011 00/00 A3020 RMK AO2 SLP249 T00040004 $=

  • Duebendorf (LSMD)

    Taf: TAF LSMD 281625Z 2817/2923 04006KT 8000 OVC007 TEMPO 2817/2820 OVC010 PROB30 TEMPO 2822/2908 4000 BR OVC004 TEMPO 2910/2918 OVC010=

    Metar: METAR LSMD 282220Z AUTO 09005KT 050V110 9999NDV OVC010 02/M00 Q1018 RMK=

  • Villacoublay (LFPV)

    Taf: TAF LFPV 282000Z 2821/2921 05008KT CAVOK PROB40 TEMPO 2904/2908 4000 BR PROB30 TEMPO 2905/2907 2500 BR=

    Metar: METAR LFPV 282230Z AUTO 04006KT CAVOK 06/02 Q1019 NOSIG=

  • Payerne (LSMP)

    Taf: TAF LSMP 281625Z 2817/2923 07005KT 8000 BR OVC005 BECMG 2821/2823 3000 BR BECMG 2910/2912 7000 OVC010=

    Metar: METAR LSMP 282220Z AUTO 03007KT 9999NDV OVC008 01/M01 Q1017 RMK=

  • Amsterdam/Schipol (EHAM)

    Taf: TAF EHAM 281710Z 2818/2924 06007KT 0800 FG OVC000 PROB30 TEMPO 2818/2820 0400 BECMG 2818/2821 2000 OVC002 BECMG 2821/2824 4000 OVC004 BECMG 2907/2910 09005KT 6000 NSW SCT010 BECMG 2910/2913 CAVOK PROB30 2920/2924 VRB03KT 7000=

    Metar: METAR EHAM 282225Z 11008KT 080V140 1200 R18C/1700N R27/1700N R18R/1900U R06/1700D BR BKN001 04/04 Q1024 BECMG 2000 OVC002=

  • Emmen (LSME)

    Taf: TAF LSME 281625Z 2817/2923 05006KT 8000 OVC010 PROB40 TEMPO 2820/2908 4000 BR OVC007 PROB40 2921/2923 OVC008=

    Metar: METAR LSME 282220Z AUTO VRB02KT 9999NDV OVC010 02/M00 Q1018 RMK=

  • Friedrichshafen (EDNY)

    Taf: TAF EDNY 281700Z 2818/2918 03008KT 8000 OVC015 TEMPO 2818/2909 OVC008=

    Metar: METAR EDNY 282220Z AUTO VRB02KT 9999 // OVC011/// 02/00 Q1018=

  • Alpnach (LSMA)

    Taf: TAF LSMA 281625Z 2817/2923 04006KT 8000 OVC007 TEMPO 2817/2820 OVC010 PROB30 TEMPO 2822/2908 4000 BR OVC004 TEMPO 2910/2918 OVC010=

    Metar: METAR LSMA 282220Z AUTO 21003KT 9999NDV OVC009 02/00 Q1017 RMK=

  • Meiringen (LSMM)

    Taf: TAF LSMM 281625Z 2817/2923 03004KT 9000 NSC PROB40 2820/2910 1500 BKN003 PROB40 2820/2908 0200 FZFG VV001 BECMG 2909/2912 BKN005=

    Metar: METAR LSMM 282220Z AUTO 08010KT 040V140 9999NDV SCT011 00/M00 Q1016 RMK=

  • Nürnberg (EDDN)

    Taf: TAF COR EDDN 281745Z 2818/2918 08006KT 8000 OVC006 TEMPO 2818/2907 BKN012 BECMG 2907/2909 FEW008=

    Metar: METAR EDDN 282220Z 10008KT 9999 OVC012 M00/M03 Q1023=

  • Rouen (LFOP)

    Taf: TAF AMD LFOP 282100Z 2821/2918 CNL=

    Metar: METAR LFOP 282230Z AUTO 05006KT CAVOK 04/03 Q1019=

  • Evreux (LFOE)

    Taf: TAF LFOE 282004Z 2820/2915 CNL=

    Metar: METAR LFOE 282230Z AUTO 04005KT CAVOK 03/02 Q1019=

  • Erfurt/Bindersleben (EDDE)

    Taf: TAF EDDE 281700Z 2818/2918 08007KT 9999 OVC010 TEMPO 2818/2912 BKN008 PROB30 TEMPO 2901/2911 0200 FZFG OVC001=

    Metar: METAR EDDE 282220Z 09006KT 9999 BKN023 01/M03 Q1025=